createdAt,value
2023-01-07T00:01:36.416Z,13.15
2023-01-07T00:04:06.234Z,10.60
2023-01-07T00:06:35.889Z,10.02
2023-01-07T00:09:05.181Z,8.23
2023-01-07T00:11:37.709Z,8.80
2023-01-07T00:14:06.974Z,9.55
2023-01-07T00:16:35.249Z,12.85
2023-01-07T00:19:03.689Z,8.93
2023-01-07T00:21:35.899Z,10.57
2023-01-07T00:24:05.160Z,12.15
2023-01-07T00:26:34.757Z,8.23
2023-01-07T00:29:01.820Z,8.95
2023-01-07T00:31:35.069Z,7.78
2023-01-07T00:34:02.624Z,15.25
2023-01-07T00:36:32.879Z,14.80
2023-01-07T00:39:07.323Z,14.02
2023-01-07T00:41:35.018Z,13.23
2023-01-07T00:44:02.288Z,10.93
2023-01-07T00:46:29.923Z,9.73
2023-01-07T00:48:57.073Z,7.13
2023-01-07T00:51:24.908Z,11.25
2023-01-07T00:53:51.932Z,7.90
2023-01-07T00:56:19.268Z,5.95
2023-01-07T00:58:46.713Z,5.00
2023-01-07T01:01:14.681Z,5.60
2023-01-07T01:03:41.889Z,6.05
2023-01-07T01:06:13.327Z,4.63
2023-01-07T01:08:45.204Z,5.85
2023-01-07T01:11:14.201Z,5.90
2023-01-07T01:13:42.140Z,5.90
2023-01-07T01:16:11.844Z,7.00
2023-01-07T01:21:08.201Z,5.30
2023-01-07T01:23:35.563Z,4.20
2023-01-07T01:26:07.328Z,4.32
2023-01-07T01:28:34.597Z,6.35
2023-01-07T01:31:02.482Z,7.25
2023-01-07T01:33:39.370Z,4.38
2023-01-07T01:36:10.139Z,5.32
2023-01-07T01:38:37.709Z,4.00
2023-01-07T01:41:05.864Z,4.43
2023-01-07T01:43:34.807Z,4.60
2023-01-07T01:46:27.732Z,5.60
2023-01-07T01:49:02.396Z,5.50
2023-01-07T01:51:34.919Z,4.13
2023-01-07T01:54:09.474Z,4.82
2023-01-07T01:56:42.646Z,7.55
2023-01-07T01:59:14.620Z,5.45
2023-01-07T02:01:41.755Z,6.35
2023-01-07T02:04:16.775Z,4.72
2023-01-07T02:06:50.839Z,4.65
2023-01-07T02:09:18.201Z,5.78
2023-01-07T02:12:14.971Z,4.57
2023-01-07T02:14:59.890Z,4.85
2023-01-07T02:17:55.573Z,3.88
2023-01-07T02:20:49.288Z,4.22
2023-01-07T02:23:47.349Z,5.55
2023-01-07T02:26:42.107Z,6.38
2023-01-07T02:29:36.988Z,7.82
2023-01-07T02:32:30.345Z,4.88
2023-01-07T02:35:29.912Z,4.53
2023-01-07T02:38:09.742Z,5.80
2023-01-07T02:40:58.669Z,4.60
2023-01-07T02:44:12.016Z,4.25
2023-01-07T02:46:42.080Z,4.88
2023-01-07T02:49:11.538Z,6.93
2023-01-07T02:56:49.673Z,4.95
2023-01-07T02:59:40.571Z,7.70
2023-01-07T03:02:17.881Z,6.00
2023-01-07T03:04:57.146Z,4.93
2023-01-07T03:08:01.801Z,6.07
2023-01-07T03:10:54.725Z,4.75
2023-01-07T03:13:26.822Z,4.40
2023-01-07T03:16:12.600Z,4.45
2023-01-07T03:18:46.133Z,3.97
2023-01-07T03:21:15.925Z,5.45
2023-01-07T03:23:54.125Z,4.60
2023-01-07T03:26:25.195Z,8.23
2023-01-07T03:28:54.174Z,6.00
2023-01-07T03:31:22.626Z,5.20
2023-01-07T03:34:09.051Z,4.35
2023-01-07T03:36:52.812Z,4.30
2023-01-07T03:39:24.475Z,4.07
2023-01-07T03:42:10.847Z,4.60
2023-01-07T03:44:37.994Z,4.70
2023-01-07T03:47:06.789Z,3.80
2023-01-07T03:49:35.060Z,4.38
2023-01-07T03:52:02.420Z,5.03
2023-01-07T03:54:29.565Z,4.97
2023-01-07T03:56:56.650Z,5.78
2023-01-07T03:59:23.700Z,4.30
2023-01-07T04:01:50.989Z,4.22
2023-01-07T04:04:18.321Z,4.40
2023-01-07T04:06:45.458Z,4.95
2023-01-07T04:09:15.232Z,3.90
2023-01-07T04:11:42.933Z,5.07
2023-01-07T04:14:10.108Z,4.40
2023-01-07T04:16:38.014Z,4.90
2023-01-07T04:19:05.389Z,5.20
2023-01-07T04:21:32.703Z,3.78
2023-01-07T04:23:59.790Z,5.93
2023-01-07T04:26:27.472Z,3.50
2023-01-07T04:28:54.642Z,3.17
2023-01-07T04:31:21.720Z,3.30
2023-01-07T04:33:48.998Z,4.57
2023-01-07T04:36:16.198Z,1.63
2023-01-07T04:38:44.027Z,1.20
2023-01-07T04:41:11.397Z,2.08
2023-01-07T04:43:38.828Z,2.08
2023-01-07T04:46:07.644Z,6.40
2023-01-07T04:48:35.862Z,2.97
2023-01-07T04:51:03.013Z,3.17
2023-01-07T04:53:30.089Z,3.20
2023-01-07T04:55:57.178Z,2.50
2023-01-07T04:58:24.429Z,2.88
2023-01-07T05:00:54.190Z,2.83
2023-01-07T05:05:48.969Z,3.13
2023-01-07T05:08:16.815Z,3.17
2023-01-07T05:10:43.888Z,1.95
2023-01-07T05:13:18.365Z,2.75
2023-01-07T05:15:47.172Z,2.17
2023-01-07T05:18:15.078Z,2.20
2023-01-07T05:20:42.798Z,3.90
2023-01-07T05:23:10.385Z,3.00
2023-01-07T05:25:37.547Z,3.10
2023-01-07T05:28:04.698Z,4.43
2023-01-07T05:30:35.093Z,5.25
2023-01-07T05:33:03.191Z,4.88
2023-01-07T05:35:30.395Z,6.50
2023-01-07T05:37:57.456Z,4.95
2023-01-07T05:40:24.406Z,6.18
2023-01-07T05:42:51.411Z,3.97
2023-01-07T05:45:18.627Z,4.03
2023-01-07T05:47:45.553Z,4.50
2023-01-07T05:50:12.513Z,4.60
2023-01-07T05:52:39.476Z,3.90
2023-01-07T05:55:45.722Z,3.58
2023-01-07T05:58:12.710Z,4.45
2023-01-07T06:00:39.669Z,5.18
2023-01-07T06:03:06.932Z,6.38
2023-01-07T06:05:34.027Z,7.90
2023-01-07T06:08:01.004Z,6.20
2023-01-07T06:10:27.996Z,5.68
2023-01-07T06:12:54.889Z,8.35
2023-01-07T06:15:21.896Z,8.55
2023-01-07T06:17:48.856Z,7.25
2023-01-07T06:20:16.059Z,5.28
2023-01-07T06:22:43.377Z,5.05
2023-01-07T06:25:11.776Z,5.20
2023-01-07T06:27:40.854Z,8.52
2023-01-07T06:30:09.908Z,5.35
2023-01-07T06:32:43.932Z,6.28
2023-01-07T06:35:11.892Z,4.82
2023-01-07T06:37:39.097Z,6.05
2023-01-07T06:40:06.966Z,6.97
2023-01-07T06:42:34.191Z,4.40
2023-01-07T06:45:01.168Z,4.75
2023-01-07T06:47:28.189Z,4.63
2023-01-07T06:49:55.157Z,4.22
2023-01-07T06:52:22.147Z,5.72
2023-01-07T06:54:49.138Z,4.88
2023-01-07T06:57:16.105Z,5.00
2023-01-07T06:59:43.066Z,5.00
2023-01-07T07:02:18.890Z,4.68
2023-01-07T07:04:46.269Z,4.72
2023-01-07T07:07:13.540Z,6.22
2023-01-07T07:09:40.491Z,4.78
2023-01-07T07:12:08.286Z,3.88
2023-01-07T07:14:35.818Z,6.85
2023-01-07T07:17:02.903Z,5.10
2023-01-07T07:19:29.874Z,6.60
2023-01-07T07:21:56.906Z,9.57
2023-01-07T07:24:24.176Z,9.57
2023-01-07T07:26:51.339Z,7.63
2023-01-07T07:29:19.598Z,5.78
2023-01-07T07:31:47.437Z,7.43
2023-01-07T07:34:14.446Z,4.30
2023-01-07T07:36:41.404Z,7.60
2023-01-07T07:39:08.331Z,6.50
2023-01-07T07:41:35.214Z,5.68
2023-01-07T07:44:07.325Z,7.18
2023-01-07T07:46:34.515Z,7.47
2023-01-07T07:49:01.650Z,9.05
2023-01-07T07:51:28.705Z,7.75
2023-01-07T07:53:55.683Z,7.00
2023-01-07T07:56:22.641Z,5.88
2023-01-07T07:58:49.822Z,7.03
2023-01-07T08:01:16.920Z,7.68
2023-01-07T08:03:44.103Z,6.32
2023-01-07T08:06:12.608Z,7.10
2023-01-07T08:08:39.719Z,7.80
2023-01-07T08:11:06.694Z,9.18
2023-01-07T08:13:33.780Z,6.97
2023-01-07T08:16:00.961Z,8.13
2023-01-07T08:18:27.993Z,11.50
2023-01-07T08:20:55.876Z,17.23
2023-01-07T08:23:23.166Z,12.40
2023-01-07T08:25:50.338Z,8.73
2023-01-07T08:28:17.393Z,9.45
2023-01-07T08:30:44.732Z,10.32
2023-01-07T08:33:11.786Z,8.75
2023-01-07T08:35:38.694Z,8.98
2023-01-07T08:38:08.210Z,12.43
2023-01-07T08:40:36.844Z,20.02
2023-01-07T08:43:06.541Z,16.13
2023-01-07T08:48:00.954Z,11.38
2023-01-07T08:50:32.635Z,14.73
2023-01-07T08:52:59.714Z,10.23
2023-01-07T08:55:26.822Z,15.88
2023-01-07T08:57:53.755Z,11.27
2023-01-07T09:00:21.244Z,10.45
2023-01-07T09:02:48.468Z,9.65
2023-01-07T09:05:15.790Z,8.25
2023-01-07T09:07:43.152Z,6.43
2023-01-07T09:10:11.448Z,8.45
2023-01-07T09:12:38.638Z,8.80
2023-01-07T09:15:06.104Z,6.85
2023-01-07T09:17:33.050Z,9.20
2023-01-07T09:20:03.612Z,8.15
2023-01-07T09:22:32.400Z,8.18
2023-01-07T09:24:59.678Z,6.50
2023-01-07T09:27:29.428Z,7.05
2023-01-07T09:32:26.534Z,6.40
2023-01-07T09:34:53.691Z,6.05
2023-01-07T09:37:20.951Z,6.70
2023-01-07T09:39:47.904Z,9.80
2023-01-07T09:42:23.695Z,8.30
2023-01-07T09:49:18.223Z,8.02
2023-01-07T09:51:59.617Z,8.77
2023-01-07T09:54:37.744Z,6.45
2023-01-07T09:57:05.389Z,5.90
2023-01-07T09:59:32.473Z,5.15
2023-01-07T10:02:20.082Z,4.70
2023-01-07T10:05:08.118Z,8.52
2023-01-07T10:07:41.146Z,8.35
2023-01-07T10:10:50.133Z,9.15
2023-01-07T10:13:20.113Z,8.70
2023-01-07T10:16:16.746Z,11.98
2023-01-07T10:18:56.475Z,8.45
2023-01-07T10:24:39.977Z,5.40
2023-01-07T10:27:28.466Z,7.60
2023-01-07T10:29:59.059Z,9.02
2023-01-07T10:32:32.071Z,7.13
2023-01-07T10:35:01.995Z,3.40
2023-01-07T10:37:35.895Z,5.00
2023-01-07T10:40:21.653Z,7.32
2023-01-07T10:43:30.163Z,6.15
2023-01-07T10:46:27.736Z,6.78
2023-01-07T10:49:24.092Z,6.95
2023-01-07T10:52:17.450Z,7.95
2023-01-07T10:54:53.334Z,5.88
2023-01-07T10:57:27.132Z,8.82
2023-01-07T11:00:15.942Z,4.03
2023-01-07T11:02:53.968Z,6.33
2023-01-07T11:05:21.496Z,8.45
2023-01-07T11:07:56.960Z,6.78
2023-01-07T11:10:28.646Z,4.35
2023-01-07T11:13:30.424Z,3.88
2023-01-07T11:16:19.216Z,9.02
2023-01-07T11:19:52.460Z,15.00
2023-01-07T11:23:10.819Z,5.55
2023-01-07T11:30:24.835Z,6.65
2023-01-07T11:33:05.868Z,5.50
2023-01-07T11:35:33.161Z,7.38
2023-01-07T11:38:29.426Z,7.55
2023-01-07T11:41:26.171Z,7.78
2023-01-07T11:44:00.152Z,5.43
2023-01-07T11:46:29.682Z,5.75
2023-01-07T11:49:00.873Z,3.17
2023-01-07T11:51:39.931Z,8.25
2023-01-07T11:54:23.668Z,7.70
2023-01-07T11:56:52.852Z,6.18
2023-01-07T11:59:21.043Z,4.35
2023-01-07T12:01:49.503Z,5.82
2023-01-07T12:04:25.243Z,5.88
2023-01-07T12:07:08.034Z,6.55
2023-01-07T12:09:36.569Z,7.25
2023-01-07T12:12:31.956Z,8.55
2023-01-07T12:15:20.133Z,8.73
2023-01-07T12:17:55.851Z,7.57
2023-01-07T12:20:28.753Z,4.93
2023-01-07T12:23:06.447Z,4.32
2023-01-07T12:25:46.755Z,8.25
2023-01-07T12:28:22.684Z,8.05
2023-01-07T12:31:36.679Z,5.85
2023-01-07T12:34:22.275Z,7.60
2023-01-07T12:37:10.138Z,6.95
2023-01-07T12:39:42.556Z,4.75
2023-01-07T12:42:26.244Z,6.78
2023-01-07T12:45:48.280Z,6.65
2023-01-07T12:48:36.259Z,6.57
2023-01-07T12:51:11.178Z,6.57
2023-01-07T12:53:51.846Z,5.38
2023-01-07T12:56:40.758Z,6.30
2023-01-07T12:59:46.200Z,4.97
2023-01-07T13:05:12.159Z,8.52
2023-01-07T13:08:04.419Z,4.32
2023-01-07T13:10:46.330Z,5.05
2023-01-07T13:13:20.748Z,10.40
2023-01-07T13:15:49.251Z,8.38
2023-01-07T13:18:18.722Z,13.00
2023-01-07T13:21:00.778Z,4.60
2023-01-07T13:24:07.536Z,5.57
2023-01-07T13:26:44.109Z,6.90
2023-01-07T13:29:17.086Z,13.65
2023-01-07T13:31:58.953Z,12.27
2023-01-07T13:34:38.282Z,4.30
2023-01-07T13:37:43.034Z,4.75
2023-01-07T13:40:41.906Z,6.18
2023-01-07T13:43:21.318Z,9.97
2023-01-07T13:45:58.006Z,6.13
2023-01-07T13:48:27.430Z,11.07
2023-01-07T13:51:04.502Z,9.63
2023-01-07T13:53:39.969Z,8.38
2023-01-07T13:56:35.165Z,7.85
2023-01-07T13:59:02.351Z,10.15
2023-01-07T14:01:33.968Z,8.15
2023-01-07T14:04:04.097Z,12.32
2023-01-07T14:06:32.489Z,10.35
2023-01-07T14:09:05.495Z,6.03
2023-01-07T14:11:32.618Z,4.50
2023-01-07T14:14:21.568Z,7.40
2023-01-07T14:16:57.129Z,3.83
2023-01-07T14:19:27.138Z,3.25
2023-01-07T14:22:25.956Z,3.92
2023-01-07T14:24:55.969Z,3.43
2023-01-07T14:27:48.409Z,3.33
2023-01-07T14:30:22.831Z,3.40
2023-01-07T14:33:04.866Z,4.78
2023-01-07T14:35:35.909Z,4.90
2023-01-07T14:38:31.764Z,2.60
2023-01-07T14:41:13.913Z,2.83
2023-01-07T14:43:40.977Z,2.97
2023-01-07T14:46:22.997Z,5.15
2023-01-07T14:49:02.066Z,3.33
2023-01-07T14:52:00.240Z,2.60
2023-01-07T14:54:33.378Z,2.50
2023-01-07T14:57:31.125Z,4.90
2023-01-07T15:00:30.515Z,11.50
2023-01-07T15:03:09.573Z,3.72
2023-01-07T15:05:45.605Z,12.02
2023-01-07T15:08:35.687Z,6.20
2023-01-07T15:11:26.317Z,6.57
2023-01-07T15:14:26.429Z,14.82
2023-01-07T15:16:54.490Z,5.68
2023-01-07T15:19:24.553Z,5.13
2023-01-07T15:22:08.789Z,7.57
2023-01-07T15:24:41.639Z,18.88
2023-01-07T15:27:22.107Z,7.95
2023-01-07T15:30:05.102Z,18.95
2023-01-07T15:40:37.619Z,15.15
2023-01-07T15:43:06.319Z,35.70
2023-01-07T15:45:33.448Z,22.83
2023-01-07T15:48:11.707Z,12.60
2023-01-07T15:50:40.954Z,9.32
2023-01-07T15:53:10.892Z,5.85
2023-01-07T15:56:01.011Z,4.43
2023-01-07T15:58:50.445Z,13.52
2023-01-07T16:01:20.575Z,14.52
2023-01-07T16:03:50.311Z,12.93
2023-01-07T16:08:54.286Z,5.32
2023-01-07T16:11:27.400Z,11.52
2023-01-07T16:14:02.166Z,10.50
2023-01-07T16:16:31.326Z,15.77
2023-01-07T16:20:08.956Z,12.57
2023-01-07T16:22:39.215Z,13.07
2023-01-07T16:25:16.592Z,12.40
2023-01-07T16:27:43.993Z,14.55
2023-01-07T16:30:17.268Z,9.32
2023-01-07T16:32:45.866Z,8.00
2023-01-07T16:35:24.081Z,8.23
2023-01-07T16:37:51.575Z,6.68
2023-01-07T16:40:24.731Z,6.80
2023-01-07T16:42:57.487Z,6.57
2023-01-07T16:45:30.911Z,7.05
2023-01-07T16:48:19.878Z,6.72
2023-01-07T16:50:48.980Z,5.25
2023-01-07T16:53:28.976Z,6.13
2023-01-07T16:56:13.921Z,5.80
2023-01-07T16:59:13.972Z,6.57
2023-01-07T17:01:41.369Z,6.20
2023-01-07T17:04:16.146Z,8.10
2023-01-07T17:06:44.206Z,7.03
2023-01-07T17:09:35.710Z,7.15
2023-01-07T17:12:03.426Z,8.40
2023-01-07T17:14:33.516Z,5.28
2023-01-07T17:17:01.936Z,5.93
2023-01-07T17:19:39.354Z,6.13
2023-01-07T17:22:28.363Z,5.97
2023-01-07T17:25:30.588Z,6.10
2023-01-07T17:28:01.521Z,9.45
2023-01-07T17:30:36.649Z,7.22
2023-01-07T17:33:04.262Z,6.47
2023-01-07T17:35:31.252Z,7.95
2023-01-07T17:37:58.267Z,9.27
2023-01-07T17:40:25.372Z,7.45
2023-01-07T17:43:10.867Z,8.65
2023-01-07T17:45:37.874Z,9.98
2023-01-07T17:48:35.407Z,8.75
2023-01-07T17:51:04.637Z,8.95
2023-01-07T17:53:39.429Z,10.38
2023-01-07T17:56:06.651Z,5.90
2023-01-07T17:58:40.612Z,9.35
2023-01-07T18:01:14.160Z,8.52
2023-01-07T18:03:41.777Z,10.43
2023-01-07T18:06:27.775Z,11.55
2023-01-07T18:08:54.821Z,10.10
2023-01-07T18:11:43.409Z,11.20
2023-01-07T18:14:12.772Z,9.63
2023-01-07T18:16:40.309Z,11.85
2023-01-07T18:19:07.941Z,10.07
2023-01-07T18:21:34.909Z,9.65
2023-01-07T18:24:06.988Z,8.95
2023-01-07T18:26:34.077Z,9.45
2023-01-07T18:29:01.040Z,11.40
2023-01-07T18:31:28.048Z,10.05
2023-01-07T18:33:55.181Z,10.70
2023-01-07T18:36:22.223Z,11.70
2023-01-07T18:43:16.171Z,7.35
2023-01-07T18:45:44.325Z,9.65
2023-01-07T18:48:13.226Z,9.60
2023-01-07T18:50:45.042Z,7.43
2023-01-07T18:53:12.555Z,8.57
2023-01-07T18:55:41.541Z,7.72
2023-01-07T18:58:10.726Z,10.23
2023-01-07T19:00:37.903Z,15.70
2023-01-07T19:03:05.133Z,11.00
2023-01-07T19:05:32.333Z,11.15
2023-01-07T19:07:59.342Z,9.23
2023-01-07T19:10:56.445Z,7.25
2023-01-07T19:13:24.500Z,9.15
2023-01-07T19:15:51.787Z,9.95
2023-01-07T19:18:18.799Z,6.30
2023-01-07T19:20:45.856Z,10.43
2023-01-07T19:23:12.841Z,11.98
2023-01-07T19:25:39.790Z,10.23
2023-01-07T19:28:42.866Z,10.35
2023-01-07T19:36:50.962Z,12.20
2023-01-07T19:39:20.830Z,11.20
2023-01-07T19:41:48.487Z,10.65
2023-01-07T19:44:16.146Z,11.15
2023-01-07T19:46:44.127Z,15.20
2023-01-07T19:49:12.192Z,11.43
2023-01-07T19:51:40.950Z,11.45
2023-01-07T19:54:13.150Z,11.73
2023-01-07T19:56:40.742Z,13.10
2023-01-07T19:59:07.775Z,13.07
2023-01-07T20:01:35.654Z,11.18
2023-01-07T20:04:02.848Z,9.35
2023-01-07T20:06:30.453Z,11.18
2023-01-07T20:08:58.684Z,9.60
2023-01-07T20:11:25.959Z,9.40
2023-01-07T20:13:52.967Z,10.07
2023-01-07T20:16:23.917Z,10.27
2023-01-07T20:18:55.514Z,9.25
2023-01-07T20:21:25.513Z,9.63
2023-01-07T20:23:53.230Z,10.32
2023-01-07T20:26:23.695Z,9.65
2023-01-07T20:28:50.942Z,10.10
2023-01-07T20:35:40.307Z,12.68
2023-01-07T20:40:40.682Z,8.63
2023-01-07T20:43:08.403Z,10.57
2023-01-07T20:45:38.264Z,8.32
2023-01-07T20:48:11.926Z,11.48
2023-01-07T20:50:39.695Z,11.30
2023-01-07T20:53:07.000Z,4.90
2023-01-07T20:55:35.157Z,9.45
2023-01-07T20:58:02.717Z,9.85
2023-01-07T21:00:29.863Z,7.88
2023-01-07T21:02:56.994Z,11.48
2023-01-07T21:05:26.116Z,9.68
2023-01-07T21:07:56.025Z,11.90
2023-01-07T21:10:23.000Z,8.60
2023-01-07T21:12:49.971Z,10.68
2023-01-07T21:15:17.585Z,8.95
2023-01-07T21:17:44.510Z,8.25
2023-01-07T21:20:14.307Z,9.45
2023-01-07T21:22:42.049Z,11.60
2023-01-07T21:25:11.390Z,9.35
2023-01-07T21:27:38.643Z,10.45
2023-01-07T21:30:07.285Z,7.85
2023-01-07T21:32:35.253Z,5.15
2023-01-07T21:35:08.848Z,8.02
2023-01-07T21:37:36.007Z,8.15
2023-01-07T21:40:04.084Z,7.00
2023-01-07T21:42:31.034Z,4.45
2023-01-07T21:44:58.060Z,3.13
2023-01-07T21:47:25.003Z,7.43
2023-01-07T21:49:52.020Z,7.07
2023-01-07T21:52:19.387Z,6.45
2023-01-07T21:54:46.386Z,9.85
2023-01-07T21:57:13.479Z,7.47
2023-01-07T21:59:40.407Z,5.15
2023-01-07T22:02:07.476Z,5.68
2023-01-07T22:04:35.032Z,6.10
2023-01-07T22:07:16.953Z,5.82
2023-01-07T22:09:44.678Z,6.15
2023-01-07T22:12:12.560Z,5.10
2023-01-07T22:14:39.660Z,5.50
2023-01-07T22:17:07.328Z,6.75
2023-01-07T22:19:34.297Z,7.25
2023-01-07T22:22:01.541Z,4.93
2023-01-07T22:24:28.636Z,6.93
2023-01-07T22:26:55.590Z,7.13
2023-01-07T22:29:22.605Z,6.13
2023-01-07T22:31:52.787Z,6.68
2023-01-07T22:34:20.280Z,6.45
2023-01-07T22:37:17.657Z,6.30
2023-01-07T22:39:54.260Z,5.57
2023-01-07T22:42:29.984Z,4.85
2023-01-07T22:45:04.810Z,5.82
2023-01-07T22:47:37.707Z,3.35
2023-01-07T22:50:06.738Z,5.95
2023-01-07T22:52:34.475Z,5.53
2023-01-07T22:55:01.835Z,6.53
2023-01-07T22:57:29.971Z,4.53
2023-01-07T22:59:59.170Z,5.63
2023-01-07T23:02:27.089Z,6.80
2023-01-07T23:04:54.259Z,6.90
2023-01-07T23:07:21.342Z,5.88
2023-01-07T23:09:50.176Z,5.53
2023-01-07T23:12:18.483Z,5.00
2023-01-07T23:14:45.440Z,5.47
2023-01-07T23:17:12.448Z,6.55
2023-01-07T23:19:39.448Z,5.85
2023-01-07T23:22:06.421Z,5.72
2023-01-07T23:24:36.418Z,10.63
2023-01-07T23:27:03.375Z,14.68
2023-01-07T23:29:30.443Z,8.80
2023-01-07T23:31:57.483Z,7.78
2023-01-07T23:34:24.560Z,6.47
2023-01-07T23:36:51.553Z,11.55
2023-01-07T23:39:18.625Z,43.72
2023-01-07T23:41:45.824Z,26.77
2023-01-07T23:44:12.877Z,13.90
2023-01-07T23:46:39.846Z,6.25
2023-01-07T23:49:06.913Z,5.00
2023-01-07T23:51:33.993Z,4.63
2023-01-07T23:54:00.988Z,5.65
2023-01-07T23:56:28.076Z,4.45
2023-01-07T23:58:55.100Z,4.65
